createdAt,value
2022-11-25T00:00:13.050Z,29.93
2022-11-25T00:03:17.297Z,32.90
2022-11-25T00:06:24.250Z,36.83
2022-11-25T00:09:27.812Z,33.43
2022-11-25T00:12:32.846Z,39.17
2022-11-25T00:15:44.554Z,33.07
2022-11-25T00:18:51.427Z,32.93
2022-11-25T00:21:55.033Z,28.10
2022-11-25T00:24:58.606Z,36.93
2022-11-25T00:28:03.688Z,34.83
2022-11-25T00:31:10.172Z,29.30
2022-11-25T00:34:15.615Z,29.60
2022-11-25T00:37:19.143Z,25.00
2022-11-25T00:40:22.729Z,32.43
2022-11-25T00:43:45.314Z,26.80
2022-11-25T00:46:48.899Z,28.27
2022-11-25T00:49:55.077Z,23.67
2022-11-25T00:52:58.618Z,29.60
2022-11-25T00:56:15.384Z,31.17
2022-11-25T00:59:20.588Z,26.00
2022-11-25T01:02:24.642Z,29.53
2022-11-25T01:05:28.572Z,26.50
2022-11-25T01:08:32.575Z,24.87
2022-11-25T01:11:36.317Z,28.60
2022-11-25T01:14:41.638Z,24.33
2022-11-25T01:17:45.315Z,29.27
2022-11-25T01:20:49.050Z,31.90
2022-11-25T01:23:54.675Z,30.50
2022-11-25T01:26:58.321Z,36.17
2022-11-25T01:30:03.319Z,33.60
2022-11-25T01:33:07.052Z,27.07
2022-11-25T01:36:13.479Z,30.13
2022-11-25T01:39:20.510Z,28.27
2022-11-25T01:42:24.104Z,27.80
2022-11-25T01:45:38.348Z,22.60
2022-11-25T01:48:49.850Z,28.77
2022-11-25T01:52:01.234Z,24.53
2022-11-25T01:55:11.947Z,22.57
2022-11-25T01:58:21.413Z,27.27
2022-11-25T02:01:26.903Z,31.67
2022-11-25T02:04:36.556Z,30.37
2022-11-25T02:07:45.704Z,27.37
2022-11-25T02:10:49.941Z,26.97
2022-11-25T02:13:54.946Z,27.43
2022-11-25T02:17:02.531Z,23.07
2022-11-25T02:20:10.964Z,23.20
2022-11-25T02:23:26.783Z,22.67
2022-11-25T02:26:32.772Z,25.13
2022-11-25T02:29:37.664Z,26.67
2022-11-25T02:32:45.469Z,23.50
2022-11-25T02:35:53.605Z,19.53
2022-11-25T02:39:00.680Z,18.33
2022-11-25T02:42:06.047Z,18.53
2022-11-25T02:45:14.696Z,19.53
2022-11-25T02:48:18.412Z,19.33
2022-11-25T02:51:25.088Z,18.97
2022-11-25T02:54:28.704Z,20.07
2022-11-25T02:57:33.722Z,19.77
2022-11-25T03:00:38.037Z,19.80
2022-11-25T03:03:42.137Z,22.53
2022-11-25T03:06:45.735Z,23.43
2022-11-25T03:09:49.361Z,22.57
2022-11-25T03:12:54.571Z,25.20
2022-11-25T03:15:58.417Z,19.43
2022-11-25T03:19:02.009Z,22.77
2022-11-25T03:22:05.956Z,24.87
2022-11-25T03:25:11.916Z,18.47
2022-11-25T03:28:17.133Z,16.30
2022-11-25T03:31:20.827Z,20.37
2022-11-25T03:34:24.571Z,17.33
2022-11-25T03:37:28.420Z,20.03
2022-11-25T03:40:31.960Z,18.20
2022-11-25T03:43:36.920Z,17.93
2022-11-25T03:46:40.518Z,20.17
2022-11-25T03:49:44.238Z,19.87
2022-11-25T03:52:47.926Z,20.23
2022-11-25T03:55:52.137Z,16.43
2022-11-25T03:58:57.132Z,18.80
2022-11-25T04:02:00.952Z,21.13
2022-11-25T04:05:05.606Z,17.50
2022-11-25T04:08:09.354Z,20.57
2022-11-25T04:11:13.070Z,15.93
2022-11-25T04:14:17.060Z,16.47
2022-11-25T04:17:20.631Z,18.60
2022-11-25T04:20:24.191Z,17.83
2022-11-25T04:23:27.752Z,14.60
2022-11-25T04:26:31.510Z,20.70
2022-11-25T04:29:36.438Z,14.17
2022-11-25T04:32:40.653Z,21.47
2022-11-25T04:35:44.216Z,15.03
2022-11-25T04:38:47.863Z,16.37
2022-11-25T04:42:11.443Z,14.87
2022-11-25T04:45:23.666Z,16.60
2022-11-25T04:48:27.686Z,14.07
2022-11-25T04:51:31.810Z,17.03
2022-11-25T04:54:35.605Z,14.97
2022-11-25T04:57:39.457Z,12.00
2022-11-25T05:00:44.457Z,16.23
2022-11-25T05:03:55.954Z,14.07
2022-11-25T05:07:01.062Z,16.27
2022-11-25T05:10:05.290Z,11.27
2022-11-25T05:13:08.969Z,15.33
2022-11-25T05:16:14.395Z,17.70
2022-11-25T05:19:19.128Z,15.53
2022-11-25T05:22:27.013Z,12.53
2022-11-25T05:25:30.665Z,13.97
2022-11-25T05:28:37.212Z,16.20
2022-11-25T05:31:42.445Z,20.63
2022-11-25T05:34:46.325Z,19.50
2022-11-25T05:37:50.121Z,20.10
2022-11-25T05:40:54.199Z,12.13
2022-11-25T05:43:57.981Z,12.20
2022-11-25T05:47:02.958Z,12.70
2022-11-25T05:50:08.748Z,14.70
2022-11-25T05:53:12.508Z,13.60
2022-11-25T05:56:16.390Z,14.07
2022-11-25T05:59:20.037Z,14.67
2022-11-25T06:02:25.046Z,14.83
2022-11-25T06:05:28.766Z,11.80
2022-11-25T06:08:33.575Z,13.40
2022-11-25T06:11:37.303Z,14.03
2022-11-25T06:14:40.893Z,12.70
2022-11-25T06:17:45.914Z,14.50
2022-11-25T06:21:05.373Z,16.60
2022-11-25T06:24:20.919Z,15.07
2022-11-25T06:27:24.608Z,10.80
2022-11-25T06:30:28.270Z,10.50
2022-11-25T06:33:35.309Z,16.07
2022-11-25T06:36:39.020Z,10.60
2022-11-25T06:39:42.654Z,13.33
2022-11-25T06:42:46.277Z,15.10
2022-11-25T06:45:50.786Z,16.17
2022-11-25T06:48:56.090Z,14.50
2022-11-25T06:51:59.674Z,28.80
2022-11-25T06:55:03.270Z,10.93
2022-11-25T06:58:28.127Z,13.17
2022-11-25T07:01:32.112Z,10.47
2022-11-25T07:04:38.154Z,12.03
2022-11-25T07:07:41.908Z,18.07
2022-11-25T07:10:45.562Z,26.83
2022-11-25T07:13:49.974Z,16.33
2022-11-25T07:16:53.548Z,19.17
2022-11-25T07:19:58.497Z,18.07
2022-11-25T07:23:02.286Z,19.20
2022-11-25T07:26:10.562Z,18.13
2022-11-25T07:29:49.932Z,12.87
2022-11-25T07:32:41.058Z,16.17
2022-11-25T07:35:46.223Z,13.63
2022-11-25T07:38:50.087Z,17.00
2022-11-25T07:41:56.302Z,12.77
2022-11-25T07:45:00.277Z,17.10
2022-11-25T07:48:04.007Z,14.40
2022-11-25T07:51:17.235Z,12.67
2022-11-25T07:54:22.441Z,21.27
2022-11-25T07:57:26.057Z,13.23
2022-11-25T08:00:29.719Z,15.00
2022-11-25T08:03:37.334Z,19.53
2022-11-25T08:06:46.184Z,14.00
2022-11-25T08:09:51.479Z,17.03
2022-11-25T08:12:55.098Z,13.13
2022-11-25T08:16:01.316Z,12.90
2022-11-25T08:19:08.094Z,12.97
2022-11-25T08:22:13.044Z,14.60
2022-11-25T08:25:17.221Z,11.97
2022-11-25T08:28:21.085Z,11.80
2022-11-25T08:31:28.165Z,9.83
2022-11-25T08:34:31.782Z,15.77
2022-11-25T08:37:36.859Z,15.50
2022-11-25T08:40:45.514Z,13.23
2022-11-25T08:43:49.584Z,13.20
2022-11-25T08:46:53.320Z,12.23
2022-11-25T08:49:57.276Z,8.33
2022-11-25T08:53:02.863Z,13.40
2022-11-25T08:56:07.769Z,17.73
2022-11-25T08:59:11.579Z,15.23
2022-11-25T09:02:18.175Z,14.20
2022-11-25T09:05:22.042Z,13.50
2022-11-25T09:08:27.326Z,13.73
2022-11-25T09:11:31.007Z,16.00
2022-11-25T09:14:34.891Z,13.23
2022-11-25T09:17:38.519Z,13.87
2022-11-25T09:20:42.718Z,15.63
2022-11-25T09:23:51.006Z,12.03
2022-11-25T09:26:54.798Z,19.00
2022-11-25T09:29:58.643Z,12.80
2022-11-25T09:33:02.227Z,13.13
2022-11-25T09:36:07.203Z,14.10
2022-11-25T09:39:12.501Z,11.73
2022-11-25T09:42:52.704Z,10.90
2022-11-25T09:46:28.048Z,14.37
2022-11-25T09:50:02.921Z,12.63
2022-11-25T09:53:27.300Z,12.90
2022-11-25T09:56:39.481Z,12.70
2022-11-25T09:59:52.124Z,10.20
2022-11-25T10:03:05.833Z,14.80
2022-11-25T10:06:19.111Z,14.43
2022-11-25T10:09:29.184Z,12.13
2022-11-25T10:12:41.876Z,7.47
2022-11-25T10:15:49.833Z,9.93
2022-11-25T10:19:02.361Z,13.90
2022-11-25T10:22:26.047Z,14.80
2022-11-25T10:25:32.990Z,11.07
2022-11-25T10:28:41.402Z,9.93
2022-11-25T10:31:45.883Z,11.37
2022-11-25T10:34:54.766Z,16.33
2022-11-25T10:38:05.099Z,13.83
2022-11-25T10:41:14.906Z,13.47
2022-11-25T10:44:27.741Z,15.00
2022-11-25T10:47:38.345Z,11.03
2022-11-25T10:51:04.288Z,19.80
2022-11-25T10:54:27.171Z,8.67
2022-11-25T10:57:31.382Z,13.23
2022-11-25T11:00:39.391Z,9.73
2022-11-25T11:03:45.478Z,10.80
2022-11-25T11:06:51.412Z,12.70
2022-11-25T11:09:55.907Z,14.60
2022-11-25T11:13:02.084Z,11.67
2022-11-25T11:16:28.172Z,15.40
2022-11-25T11:19:32.383Z,10.20
2022-11-25T11:22:36.971Z,9.57
2022-11-25T11:25:43.175Z,13.53
2022-11-25T11:28:47.539Z,12.13
2022-11-25T11:32:00.882Z,14.10
2022-11-25T11:35:15.882Z,14.97
2022-11-25T11:38:35.688Z,17.03
2022-11-25T11:41:48.394Z,11.70
2022-11-25T11:45:13.666Z,9.23
2022-11-25T11:48:28.591Z,13.00
2022-11-25T11:51:44.941Z,14.53
2022-11-25T11:54:56.610Z,12.77
2022-11-25T11:58:15.069Z,9.80
2022-11-25T12:01:46.660Z,16.37
2022-11-25T12:05:06.085Z,15.37
2022-11-25T12:08:18.219Z,13.43
2022-11-25T12:11:30.104Z,16.30
2022-11-25T12:14:43.429Z,15.53
2022-11-25T12:17:54.478Z,16.40
2022-11-25T12:21:05.449Z,13.87
2022-11-25T12:24:19.763Z,13.97
2022-11-25T12:27:32.142Z,15.30
2022-11-25T12:30:43.199Z,17.07
2022-11-25T12:34:03.208Z,18.70
2022-11-25T12:37:17.374Z,17.30
2022-11-25T12:40:31.050Z,15.87
2022-11-25T12:43:44.668Z,12.53
2022-11-25T12:46:50.871Z,17.77
2022-11-25T12:49:57.090Z,21.13
2022-11-25T12:53:17.048Z,16.37
2022-11-25T12:56:33.306Z,19.87
2022-11-25T13:00:39.367Z,24.27
2022-11-25T13:04:07.622Z,22.13
2022-11-25T13:07:35.347Z,22.97
2022-11-25T13:11:04.812Z,19.47
2022-11-25T13:14:26.295Z,22.47
2022-11-25T13:17:37.105Z,25.00
2022-11-25T13:20:50.026Z,23.07
2022-11-25T13:23:57.173Z,25.87
2022-11-25T13:27:02.748Z,20.07
2022-11-25T13:30:30.328Z,22.60
2022-11-25T13:34:25.540Z,22.27
2022-11-25T13:37:41.794Z,21.40
2022-11-25T13:40:59.502Z,20.67
2022-11-25T13:44:13.284Z,22.37
2022-11-25T13:47:38.877Z,26.37
2022-11-25T13:51:09.357Z,26.93
2022-11-25T13:54:08.562Z,22.27
2022-11-25T13:57:28.992Z,29.50
2022-11-25T14:01:07.099Z,26.77
2022-11-25T14:04:14.061Z,20.73
2022-11-25T14:07:37.747Z,21.67
2022-11-25T14:10:51.852Z,22.70
2022-11-25T14:14:28.806Z,25.33
2022-11-25T14:18:00.169Z,24.57
2022-11-25T14:21:17.830Z,19.73
2022-11-25T14:24:35.717Z,23.07
2022-11-25T14:27:39.736Z,24.27
2022-11-25T14:30:53.608Z,21.50
2022-11-25T14:34:04.717Z,21.40
2022-11-25T14:37:15.943Z,26.80
2022-11-25T14:40:26.921Z,23.47
2022-11-25T14:43:37.106Z,22.97
2022-11-25T14:46:53.969Z,20.40
2022-11-25T14:50:26.758Z,23.17
2022-11-25T14:53:25.744Z,22.43
2022-11-25T14:56:35.314Z,20.30
2022-11-25T14:59:44.895Z,20.57
2022-11-25T15:02:59.482Z,21.67
2022-11-25T15:06:07.459Z,22.03
2022-11-25T15:09:25.224Z,20.53
2022-11-25T15:12:34.202Z,20.27
2022-11-25T15:15:38.173Z,19.00
2022-11-25T15:18:50.335Z,20.93
2022-11-25T15:25:25.831Z,24.13
2022-11-25T15:28:35.850Z,22.80
2022-11-25T15:31:42.105Z,28.43
2022-11-25T15:34:47.672Z,20.33
2022-11-25T15:37:54.382Z,22.13
2022-11-25T15:40:58.914Z,24.20
2022-11-25T15:44:05.906Z,20.80
2022-11-25T15:47:24.294Z,20.80
2022-11-25T15:50:32.586Z,21.23
2022-11-25T15:53:39.461Z,24.10
2022-11-25T15:56:50.227Z,23.57
2022-11-25T16:00:16.437Z,23.57
2022-11-25T16:03:23.624Z,16.73
2022-11-25T16:06:29.232Z,20.80
2022-11-25T16:09:34.995Z,26.83
2022-11-25T16:12:39.084Z,23.23
2022-11-25T16:15:49.062Z,21.40
2022-11-25T16:19:14.049Z,18.20
2022-11-25T16:22:21.651Z,20.53
2022-11-25T16:25:26.828Z,18.87
2022-11-25T16:28:31.462Z,19.80
2022-11-25T16:31:35.103Z,20.13
2022-11-25T16:34:39.477Z,18.73
2022-11-25T16:37:48.465Z,20.73
2022-11-25T16:40:55.117Z,17.57
2022-11-25T16:44:03.621Z,18.43
2022-11-25T16:47:12.447Z,21.97
2022-11-25T16:50:17.727Z,23.53
2022-11-25T16:53:21.328Z,24.27
2022-11-25T16:56:29.771Z,29.43
2022-11-25T16:59:37.888Z,21.93
2022-11-25T17:02:41.852Z,18.67
2022-11-25T17:05:45.758Z,19.50
2022-11-25T17:08:49.731Z,19.83
2022-11-25T17:11:56.080Z,20.50
2022-11-25T17:15:01.376Z,18.63
2022-11-25T17:18:08.921Z,18.50
2022-11-25T17:21:15.534Z,20.63
2022-11-25T17:24:22.667Z,19.93
2022-11-25T17:27:32.574Z,19.80
2022-11-25T17:30:41.509Z,14.87
2022-11-25T17:33:48.060Z,21.93
2022-11-25T17:36:52.304Z,24.27
2022-11-25T17:39:56.326Z,19.43
2022-11-25T17:43:01.491Z,21.87
2022-11-25T17:46:05.440Z,20.93
2022-11-25T17:49:16.560Z,20.13
2022-11-25T17:52:20.305Z,25.43
2022-11-25T17:55:24.022Z,17.53
2022-11-25T17:58:31.331Z,18.80
2022-11-25T18:01:47.772Z,22.33
2022-11-25T18:04:51.818Z,26.93
2022-11-25T18:07:55.895Z,25.00
2022-11-25T18:11:02.605Z,22.50
2022-11-25T18:14:07.797Z,17.80
2022-11-25T18:17:17.287Z,17.93
2022-11-25T18:20:28.143Z,20.07
2022-11-25T18:23:34.845Z,21.73
2022-11-25T18:26:46.400Z,16.23
2022-11-25T18:29:54.983Z,17.23
2022-11-25T18:32:59.281Z,18.93
2022-11-25T18:36:02.938Z,28.07
2022-11-25T18:39:06.697Z,20.40
2022-11-25T18:42:24.126Z,20.10
2022-11-25T18:45:34.156Z,16.97
2022-11-25T18:48:37.872Z,24.07
2022-11-25T18:51:42.386Z,19.73
2022-11-25T18:54:46.710Z,20.97
2022-11-25T18:57:53.565Z,25.83
2022-11-25T19:01:05.985Z,20.90
2022-11-25T19:04:17.400Z,15.57
2022-11-25T19:07:22.260Z,16.43
2022-11-25T19:10:33.460Z,18.70
2022-11-25T19:13:38.548Z,22.20
2022-11-25T19:16:45.280Z,23.17
2022-11-25T19:19:49.196Z,19.77
2022-11-25T19:22:56.661Z,20.90
2022-11-25T19:26:11.498Z,20.67
2022-11-25T19:29:21.113Z,24.60
2022-11-25T19:32:30.633Z,18.40
2022-11-25T19:35:38.763Z,14.23
2022-11-25T19:38:42.480Z,18.27
2022-11-25T19:41:46.235Z,22.57
2022-11-25T19:44:49.970Z,23.20
2022-11-25T19:47:54.966Z,27.37
2022-11-25T19:51:02.215Z,17.27
2022-11-25T19:54:07.310Z,22.20
2022-11-25T19:57:19.387Z,15.27
2022-11-25T20:00:25.276Z,22.17
2022-11-25T20:03:32.550Z,15.03
2022-11-25T20:06:37.845Z,19.43
2022-11-25T20:09:42.729Z,20.50
2022-11-25T20:12:47.115Z,22.33
2022-11-25T20:15:52.138Z,34.63
2022-11-25T20:18:58.270Z,30.40
2022-11-25T20:22:02.031Z,28.50
2022-11-25T20:25:10.649Z,20.10
2022-11-25T20:28:19.045Z,27.17
2022-11-25T20:31:27.337Z,24.57
2022-11-25T20:34:40.490Z,20.57
2022-11-25T20:37:57.977Z,24.30
2022-11-25T20:41:02.991Z,20.90
2022-11-25T20:44:06.721Z,19.10
2022-11-25T20:47:16.668Z,18.30
2022-11-25T20:50:23.021Z,21.40
2022-11-25T20:53:28.070Z,24.70
2022-11-25T20:56:31.835Z,25.60
2022-11-25T20:59:35.746Z,18.27
2022-11-25T21:02:39.559Z,17.37
2022-11-25T21:05:45.074Z,19.17
2022-11-25T21:08:52.246Z,31.27
2022-11-25T21:11:55.971Z,20.20
2022-11-25T21:14:59.946Z,22.50
2022-11-25T21:18:04.166Z,24.47
2022-11-25T21:21:17.594Z,26.60
2022-11-25T21:24:31.460Z,22.17
2022-11-25T21:27:35.434Z,21.60
2022-11-25T21:30:39.089Z,28.33
2022-11-25T21:33:42.815Z,19.43
2022-11-25T21:36:53.168Z,22.40
2022-11-25T21:39:58.485Z,26.93
2022-11-25T21:43:04.396Z,19.27
2022-11-25T21:46:14.805Z,22.97
2022-11-25T21:49:18.520Z,28.70
2022-11-25T21:52:23.621Z,25.93
2022-11-25T21:55:27.322Z,49.83
2022-11-25T21:58:32.613Z,54.33
2022-11-25T22:01:36.378Z,54.47
2022-11-25T22:04:40.328Z,51.60
2022-11-25T22:07:46.188Z,50.73
2022-11-25T22:10:53.275Z,47.07
2022-11-25T22:13:59.026Z,46.07
2022-11-25T22:17:06.015Z,58.70
2022-11-25T22:20:27.200Z,54.13
2022-11-25T22:23:32.204Z,45.93
2022-11-25T22:26:36.286Z,40.63
2022-11-25T22:29:40.114Z,54.93
2022-11-25T22:32:44.033Z,45.47
2022-11-25T22:35:47.793Z,35.53
2022-11-25T22:38:52.741Z,40.40
2022-11-25T22:42:05.259Z,34.20
2022-11-25T22:45:19.805Z,33.77
2022-11-25T22:48:32.245Z,34.90
2022-11-25T22:51:35.874Z,29.97
2022-11-25T22:54:41.218Z,32.10
2022-11-25T22:57:45.183Z,28.67
2022-11-25T23:00:49.623Z,31.07
2022-11-25T23:03:53.263Z,28.93
2022-11-25T23:06:57.885Z,24.30
2022-11-25T23:10:02.932Z,28.70
2022-11-25T23:13:06.494Z,25.67
2022-11-25T23:16:12.608Z,25.93
2022-11-25T23:19:17.591Z,24.03
2022-11-25T23:22:21.909Z,24.37
2022-11-25T23:25:26.883Z,26.50
2022-11-25T23:28:30.503Z,28.03
2022-11-25T23:31:36.161Z,34.10
2022-11-25T23:34:40.033Z,28.13
2022-11-25T23:37:44.289Z,28.13
2022-11-25T23:40:49.241Z,26.17
2022-11-25T23:43:53.971Z,31.73
2022-11-25T23:47:02.168Z,30.37
2022-11-25T23:50:08.019Z,34.57
2022-11-25T23:53:22.501Z,29.67
2022-11-25T23:56:29.738Z,38.17
2022-11-25T23:59:33.370Z,42.77
